Time,TemperatureF,DewpointF,PressureIn,WindDirection,WindDirectionDegrees,WindSpeedMPH,WindSpeedGustMPH,Humidity,HourlyPrecipIn,Conditions,Clouds,dailyrainin,SoftwareType,DateUTC
2013-08-27 00:09:00,74.3,67.0,30.14,SSE,159,0.0,0.0,77,0.00,,,0.00,weatherlink.com 1.10,2013-08-27 05:09:00,
2013-08-27 00:25:00,74.2,67.0,30.15,SSE,160,0.0,0.0,78,0.00,,,0.00,weatherlink.com 1.10,2013-08-27 05:25:00,
2013-08-27 00:40:00,74.6,67.0,30.14,SSE,160,0.0,0.0,77,0.00,,,0.00,weatherlink.com 1.10,2013-08-27 05:40:00,
2013-08-27 00:55:00,74.8,67.0,30.15,South,172,0.0,0.0,77,0.00,,,0.00,weatherlink.com 1.10,2013-08-27 05:55:00,
2013-08-27 01:10:00,74.8,67.0,30.14,SSE,158,0.0,0.0,77,0.00,,,0.00,weatherlink.com 1.10,2013-08-27 06:10:00,
2013-08-27 01:25:00,74.6,67.0,30.14,SSE,158,0.0,0.0,77,0.00,,,0.00,weatherlink.com 1.10,2013-08-27 06:25:00,
2013-08-27 01:40:00,74.6,67.0,30.14,SSE,158,0.0,0.0,78,0.00,,,0.00,weatherlink.com 1.10,2013-08-27 06:40:00,
2013-08-27 01:55:00,74.1,67.0,30.14,SSE,158,0.0,0.0,79,0.00,,,0.00,weatherlink.com 1.10,2013-08-27 06:55:00,
2013-08-27 02:10:00,73.7,67.0,30.14,SSE,158,0.0,0.0,79,0.00,,,0.00,weatherlink.com 1.10,2013-08-27 07:10:00,
2013-08-27 02:25:00,73.4,67.0,30.14,SSE,158,0.0,0.0,79,0.00,,,0.00,weatherlink.com 1.10,2013-08-27 07:25:00,
2013-08-27 02:40:00,72.9,66.0,30.14,SSE,168,0.0,0.0,79,0.00,,,0.00,weatherlink.com 1.10,2013-08-27 07:40:00,
2013-08-27 02:55:00,72.5,66.0,30.14,SSE,168,0.0,0.0,79,0.00,,,0.00,weatherlink.com 1.10,2013-08-27 07:55:00,
2013-08-27 03:10:00,72.1,66.0,30.14,SSE,168,0.0,0.0,80,0.00,,,0.00,weatherlink.com 1.10,2013-08-27 08:10:00,
2013-08-27 03:25:00,71.6,65.0,30.14,SSE,167,0.0,0.0,80,0.00,,,0.00,weatherlink.com 1.10,2013-08-27 08:25:00,
2013-08-27 03:40:00,71.2,66.0,30.13,SSE,167,0.0,0.0,82,0.00,,,0.00,weatherlink.com 1.10,2013-08-27 08:40:00,
2013-08-27 03:55:00,70.9,66.0,30.14,SSE,167,0.0,0.0,83,0.00,,,0.00,weatherlink.com 1.10,2013-08-27 08:55:00,
2013-08-27 04:10:00,70.2,65.0,30.14,SSE,167,0.0,0.0,84,0.00,,,0.00,weatherlink.com 1.10,2013-08-27 09:10:00,
2013-08-27 04:25:00,69.6,65.0,30.13,SSE,167,0.0,0.0,86,0.00,,,0.00,weatherlink.com 1.10,2013-08-27 09:25:00,
2013-08-27 04:40:00,69.3,65.0,30.14,SSE,167,0.0,0.0,86,0.00,,,0.00,weatherlink.com 1.10,2013-08-27 09:40:00,
2013-08-27 04:55:00,69.1,65.0,30.14,SSE,167,0.0,0.0,86,0.00,,,0.00,weatherlink.com 1.10,2013-08-27 09:55:00,
2013-08-27 05:10:00,69.0,65.0,30.14,SSE,167,0.0,0.0,86,0.00,,,0.00,weatherlink.com 1.10,2013-08-27 10:10:00,
2013-08-27 05:25:00,68.8,65.0,30.14,SSE,167,0.0,0.0,87,0.00,,,0.00,weatherlink.com 1.10,2013-08-27 10:25:00,
2013-08-27 05:40:00,68.5,65.0,30.14,SSE,167,0.0,0.0,87,0.00,,,0.00,weatherlink.com 1.10,2013-08-27 10:40:00,
2013-08-27 05:55:00,68.1,65.0,30.14,SSE,167,0.0,0.0,88,0.00,,,0.00,weatherlink.com 1.10,2013-08-27 10:55:00,
2013-08-27 06:10:00,67.7,64.0,30.14,SSE,168,0.0,0.0,89,0.00,,,0.00,weatherlink.com 1.10,2013-08-27 11:10:00,
2013-08-27 06:25:00,67.4,64.0,30.14,SSE,167,0.0,0.0,89,0.00,,,0.00,weatherlink.com 1.10,2013-08-27 11:25:00,
2013-08-27 06:41:00,67.3,64.0,30.15,SSE,167,0.0,0.0,90,0.00,,,0.00,weatherlink.com 1.10,2013-08-27 11:41:00,
2013-08-27 06:56:00,67.4,65.0,30.16,SSE,167,0.0,0.0,90,0.00,,,0.00,weatherlink.com 1.10,2013-08-27 11:56:00,
2013-08-27 07:11:00,67.7,65.0,30.16,SSE,167,0.0,0.0,90,0.00,,,0.00,weatherlink.com 1.10,2013-08-27 12:11:00,
2013-08-27 07:26:00,68.3,65.0,30.16,SSE,167,0.0,0.0,90,0.00,,,0.00,weatherlink.com 1.10,2013-08-27 12:26:00,
2013-08-27 07:41:00,69.0,65.0,30.16,SSE,167,0.0,0.0,87,0.00,,,0.00,weatherlink.com 1.10,2013-08-27 12:41:00,
2013-08-27 07:56:00,70.3,66.0,30.16,South,169,0.0,0.0,85,0.00,,,0.00,weatherlink.com 1.10,2013-08-27 12:56:00,
2013-08-27 08:11:00,71.9,66.0,30.17,SSW,200,0.0,0.0,81,0.00,,,0.00,weatherlink.com 1.10,2013-08-27 13:11:00,
2013-08-27 08:26:00,73.6,66.0,30.17,West,276,0.0,0.0,77,0.00,,,0.00,weatherlink.com 1.10,2013-08-27 13:26:00,
2013-08-27 08:41:00,74.8,66.0,30.16,NNW,345,0.0,0.0,74,0.00,,,0.00,weatherlink.com 1.10,2013-08-27 13:41:00,
2013-08-27 08:56:00,76.0,66.0,30.16,WNW,295,0.0,1.0,72,0.00,,,0.00,weatherlink.com 1.10,2013-08-27 13:56:00,
2013-08-27 09:11:00,77.4,66.0,30.17,West,274,0.0,2.0,68,0.00,,,0.00,weatherlink.com 1.10,2013-08-27 14:11:00,
2013-08-27 09:26:00,78.9,67.0,30.16,WNW,300,0.0,2.0,66,0.00,,,0.00,weatherlink.com 1.10,2013-08-27 14:26:00,
2013-08-27 09:41:00,80.7,66.0,30.16,West,276,0.0,2.0,61,0.00,,,0.00,weatherlink.com 1.10,2013-08-27 14:41:00,
2013-08-27 09:56:00,81.8,66.0,30.16,WNW,301,0.0,4.0,59,0.00,,,0.00,weatherlink.com 1.10,2013-08-27 14:56:00,
2013-08-27 10:11:00,82.9,66.0,30.16,WSW,257,0.0,1.0,57,0.00,,,0.00,weatherlink.com 1.10,2013-08-27 15:11:00,
2013-08-27 10:26:00,83.5,66.0,30.17,WNW,297,0.0,2.0,56,0.00,,,0.00,weatherlink.com 1.10,2013-08-27 15:26:00,
2013-08-27 10:41:00,85.0,67.0,30.16,West,266,0.0,3.0,55,0.00,,,0.00,weatherlink.com 1.10,2013-08-27 15:41:00,
2013-08-27 10:56:00,85.8,66.0,30.16,WSW,242,1.0,2.0,52,0.00,,,0.00,weatherlink.com 1.10,2013-08-27 15:56:00,
2013-08-27 11:11:00,86.0,67.0,30.16,West,259,1.0,2.0,54,0.00,,,0.00,weatherlink.com 1.10,2013-08-27 16:11:00,
2013-08-27 11:26:00,86.3,67.0,30.16,West,278,0.0,3.0,53,0.00,,,0.00,weatherlink.com 1.10,2013-08-27 16:26:00,
2013-08-27 11:41:00,86.5,67.0,30.16,West,267,1.0,6.0,53,0.00,,,0.00,weatherlink.com 1.10,2013-08-27 16:41:00,
2013-08-27 12:11:00,88.2,67.0,30.15,WNW,302,0.0,2.0,49,0.00,,,0.00,weatherlink.com 1.10,2013-08-27 17:11:00,
2013-08-27 12:26:00,88.4,66.0,30.14,ENE,60,1.0,3.0,48,0.00,,,0.00,weatherlink.com 1.10,2013-08-27 17:26:00,
2013-08-27 12:41:00,88.2,68.0,30.14,West,278,1.0,3.0,51,0.00,,,0.00,weatherlink.com 1.10,2013-08-27 17:41:00,
2013-08-27 12:56:00,88.0,67.0,30.13,ESE,102,1.0,2.0,50,0.00,,,0.00,weatherlink.com 1.10,2013-08-27 17:56:00,
2013-08-27 13:11:00,88.7,67.0,30.12,WSW,256,0.0,4.0,49,0.00,,,0.00,weatherlink.com 1.10,2013-08-27 18:11:00,
2013-08-27 13:27:00,90.6,68.0,30.12,ENE,68,0.0,2.0,48,0.00,,,0.00,weatherlink.com 1.10,2013-08-27 18:27:00,
2013-08-27 13:42:00,90.8,67.0,30.11,WNW,300,1.0,3.0,45,0.00,,,0.00,weatherlink.com 1.10,2013-08-27 18:42:00,
2013-08-27 13:57:00,91.4,68.0,30.10,South,182,0.0,2.0,46,0.00,,,0.00,weatherlink.com 1.10,2013-08-27 18:57:00,
2013-08-27 14:12:00,93.1,71.0,30.10,WSW,256,1.0,4.0,48,0.00,,,0.00,weatherlink.com 1.10,2013-08-27 19:12:00,
2013-08-27 14:27:00,90.8,67.0,30.09,WNW,283,0.0,2.0,46,0.00,,,0.00,weatherlink.com 1.10,2013-08-27 19:27:00,
2013-08-27 14:42:00,90.3,69.0,30.09,WSW,253,3.0,3.0,49,0.00,,,0.00,weatherlink.com 1.10,2013-08-27 19:42:00,
2013-08-27 14:57:00,88.3,67.0,30.08,WNW,287,1.0,4.0,50,0.00,,,0.00,weatherlink.com 1.10,2013-08-27 19:57:00,
2013-08-27 15:12:00,88.2,68.0,30.07,ENE,58,0.0,2.0,51,0.00,,,0.00,weatherlink.com 1.10,2013-08-27 20:12:00,
2013-08-27 15:27:00,87.9,68.0,30.07,West,281,0.0,2.0,52,0.00,,,0.00,weatherlink.com 1.10,2013-08-27 20:27:00,
2013-08-27 15:42:00,88.1,67.0,30.07,West,280,0.0,1.0,50,0.00,,,0.00,weatherlink.com 1.10,2013-08-27 20:42:00,
2013-08-27 15:57:00,88.0,66.0,30.07,West,279,0.0,1.0,49,0.00,,,0.00,weatherlink.com 1.10,2013-08-27 20:57:00,
2013-08-27 16:57:00,87.5,67.0,30.06,North,8,0.0,0.0,51,0.00,,,0.00,weatherlink.com 1.10,2013-08-27 21:57:00,
2013-08-27 17:12:00,87.2,69.0,30.06,North,9,0.0,0.0,54,0.00,,,0.00,weatherlink.com 1.10,2013-08-27 22:12:00,
2013-08-27 17:27:00,87.3,68.0,30.06,North,9,0.0,1.0,52,0.00,,,0.00,weatherlink.com 1.10,2013-08-27 22:27:00,
2013-08-27 17:42:00,88.0,68.0,30.06,ENE,58,0.0,1.0,51,0.00,,,0.00,weatherlink.com 1.10,2013-08-27 22:42:00,
2013-08-27 17:57:00,87.7,68.0,30.05,ENE,58,0.0,0.0,52,0.00,,,0.00,weatherlink.com 1.10,2013-08-27 22:57:00,
2013-08-27 18:12:00,86.8,67.0,30.05,ENE,58,0.0,0.0,52,0.00,,,0.00,weatherlink.com 1.10,2013-08-27 23:12:00,
2013-08-27 18:27:00,86.4,68.0,30.05,ENE,58,0.0,0.0,54,0.00,,,0.00,weatherlink.com 1.10,2013-08-27 23:27:00,
2013-08-27 18:42:00,86.0,67.0,30.05,ENE,61,0.0,0.0,54,0.00,,,0.00,weatherlink.com 1.10,2013-08-27 23:42:00,
2013-08-27 18:57:00,85.6,68.0,30.05,ENE,60,0.0,0.0,55,0.00,,,0.00,weatherlink.com 1.10,2013-08-27 23:57:00,
2013-08-27 19:12:00,85.3,68.0,30.05,ENE,60,0.0,0.0,57,0.00,,,0.00,weatherlink.com 1.10,2013-08-28 00:12:00,
2013-08-27 19:27:00,84.9,68.0,30.05,ENE,60,0.0,0.0,57,0.00,,,0.00,weatherlink.com 1.10,2013-08-28 00:27:00,
2013-08-27 19:42:00,84.3,68.0,30.05,ENE,61,0.0,0.0,58,0.00,,,0.00,weatherlink.com 1.10,2013-08-28 00:42:00,
2013-08-27 19:57:00,83.5,68.0,30.05,ENE,60,0.0,0.0,59,0.00,,,0.00,weatherlink.com 1.10,2013-08-28 00:57:00,
2013-08-27 20:12:00,83.0,67.0,30.05,ENE,60,0.0,0.0,59,0.00,,,0.00,weatherlink.com 1.10,2013-08-28 01:12:00,
2013-08-27 20:27:00,82.7,68.0,30.06,ENE,61,0.0,0.0,61,0.00,,,0.00,weatherlink.com 1.10,2013-08-28 01:27:00,
2013-08-27 20:42:00,82.4,68.0,30.06,ENE,61,0.0,0.0,62,0.00,,,0.00,weatherlink.com 1.10,2013-08-28 01:42:00,
2013-08-27 20:57:00,81.9,68.0,30.07,ENE,60,0.0,0.0,62,0.00,,,0.00,weatherlink.com 1.10,2013-08-28 01:57:00,
2013-08-27 21:12:00,81.6,68.0,30.07,ENE,61,0.0,0.0,64,0.00,,,0.00,weatherlink.com 1.10,2013-08-28 02:12:00,
2013-08-27 21:27:00,80.6,68.0,30.07,ENE,61,0.0,0.0,66,0.00,,,0.00,weatherlink.com 1.10,2013-08-28 02:27:00,
2013-08-27 21:42:00,79.5,68.0,30.08,ENE,61,0.0,0.0,69,0.00,,,0.00,weatherlink.com 1.10,2013-08-28 02:42:00,
2013-08-27 21:57:00,78.6,68.0,30.08,ENE,61,0.0,0.0,71,0.00,,,0.00,weatherlink.com 1.10,2013-08-28 02:57:00,
2013-08-27 22:12:00,77.9,69.0,30.09,ENE,61,0.0,0.0,73,0.00,,,0.00,weatherlink.com 1.10,2013-08-28 03:12:00,
2013-08-27 22:27:00,77.4,69.0,30.09,ENE,61,0.0,0.0,75,0.00,,,0.00,weatherlink.com 1.10,2013-08-28 03:27:00,
2013-08-27 22:42:00,77.3,69.0,30.08,ENE,61,0.0,0.0,75,0.00,,,0.00,weatherlink.com 1.10,2013-08-28 03:42:00,
2013-08-27 22:57:00,76.6,69.0,30.08,ENE,61,0.0,0.0,76,0.00,,,0.00,weatherlink.com 1.10,2013-08-28 03:57:00,
2013-08-27 23:12:00,76.0,69.0,30.07,ENE,61,0.0,0.0,78,0.00,,,0.00,weatherlink.com 1.10,2013-08-28 04:12:00,
2013-08-27 23:27:00,75.4,69.0,30.08,ENE,61,0.0,0.0,79,0.00,,,0.00,weatherlink.com 1.10,2013-08-28 04:27:00,
2013-08-27 23:42:00,74.9,69.0,30.07,ENE,61,0.0,0.0,81,0.00,,,0.00,weatherlink.com 1.10,2013-08-28 04:42:00,
2013-08-27 23:57:00,74.4,68.0,30.07,ENE,61,0.0,0.0,81,0.00,,,0.00,weatherlink.com 1.10,2013-08-28 04:57:00,